Terminal Aerodrome Forecast
Issued by NWS El Paso, TX

Home | Current Version | Previous Version | Text Only | Print | Product List | Glossary On
Versions: 1 2 3 4 5 6 7 8 9 10 11 12 13 14 15
479
FTUS44 KEPZ 191127
TAFELP
TAF
KELP 191127Z 1912/2012 24013KT P6SM SCT080
     FM191800 25022G32KT P6SM SCT100 BKN250
     FM200300 27013G23KT P6SM SCT150 BKN250=

USA.gov is the U.S. government's official web portal to all federal, state and local government web resources and services.